createdAt,value
2023-04-04T00:03:16.552Z,102245.81
2023-04-04T00:06:12.799Z,102316.16
2023-04-04T00:10:12.252Z,102321.31
2023-04-04T00:11:26.506Z,102321.31
2023-04-04T00:13:37.073Z,102315.16
2023-04-04T00:16:14.160Z,102308.13
2023-04-04T00:16:14.551Z,102308.13
2023-04-04T00:18:41.703Z,102238.38
2023-04-04T00:21:41.443Z,102238.38
2023-04-04T00:22:50.849Z,102328.59
2023-04-04T00:24:38.673Z,102318.19
2023-04-04T00:26:03.200Z,102318.19
2023-04-04T00:27:05.186Z,102294.59
2023-04-04T00:29:34.444Z,102142.44
2023-04-04T00:31:03.458Z,102142.44
2023-04-04T00:32:01.315Z,102261.31
2023-04-04T00:34:27.804Z,102334.19
2023-04-04T00:36:03.441Z,102334.19
2023-04-04T00:36:54.488Z,102347.94
2023-04-04T00:39:27.127Z,102347.97
2023-04-04T00:41:03.212Z,102347.97
2023-04-04T00:45:25.573Z,102351.53
2023-04-04T00:46:03.265Z,102351.53
2023-04-04T00:47:55.969Z,102262.97
2023-04-04T00:50:23.186Z,102089.25
2023-04-04T00:52:07.996Z,102089.25
2023-04-04T00:53:16.999Z,102121.31
2023-04-04T01:02:11.497Z,102347.03
2023-04-04T01:06:03.245Z,102348.66
2023-04-04T01:07:55.094Z,102342.53
2023-04-04T01:11:36.898Z,102337.16
2023-04-04T01:14:00.785Z,102361.47
2023-04-04T01:16:04.288Z,102361.47
2023-04-04T01:16:31.556Z,102370.00
2023-04-04T01:19:02.428Z,102364.78
2023-04-04T01:21:11.477Z,102364.78
2023-04-04T01:24:28.310Z,102350.84
2023-04-04T01:26:03.178Z,102350.84
2023-04-04T01:26:58.113Z,102342.97
2023-04-04T01:29:24.601Z,102347.19
2023-04-04T01:31:03.295Z,102347.19
2023-04-04T01:32:05.067Z,102331.38
2023-04-04T01:34:52.620Z,102353.00
2023-04-04T01:36:03.203Z,102353.00
2023-04-04T01:37:28.099Z,102359.91
2023-04-04T01:40:06.180Z,102361.59
2023-04-04T01:41:03.173Z,102361.59
2023-04-04T01:42:33.203Z,102352.88
2023-04-04T01:44:59.651Z,102365.78
2023-04-04T01:46:03.458Z,102365.78
2023-04-04T01:47:26.441Z,102357.97
2023-04-04T01:49:56.594Z,102314.38
2023-04-04T01:51:03.200Z,102314.38
2023-04-04T01:52:25.488Z,102357.97
2023-04-04T01:54:54.454Z,102357.03
2023-04-04T01:56:03.344Z,102357.03
2023-04-04T01:57:21.489Z,102353.47
2023-04-04T01:59:47.957Z,102316.72
2023-04-04T02:01:03.389Z,102316.72
2023-04-04T02:02:14.660Z,102282.88
2023-04-04T02:04:41.801Z,102359.41
2023-04-04T02:06:03.180Z,102359.41
2023-04-04T02:07:08.467Z,102351.44
2023-04-04T02:09:34.844Z,102351.25
2023-04-04T02:11:03.197Z,102351.25
2023-04-04T02:12:03.615Z,102267.47
2023-04-04T02:14:30.067Z,102378.00
2023-04-04T02:16:03.210Z,102378.00
2023-04-04T02:16:56.654Z,102366.69
2023-04-04T02:19:24.704Z,102303.13
2023-04-04T02:22:15.366Z,102364.81
2023-04-04T02:24:48.919Z,102330.72
2023-04-04T02:26:03.204Z,102330.72
2023-04-04T02:27:15.820Z,102335.88
2023-04-04T02:29:42.769Z,102344.38
2023-04-04T02:31:03.294Z,102344.38
2023-04-04T02:32:09.186Z,102320.94
2023-04-04T02:34:35.792Z,102283.38
2023-04-04T02:36:03.206Z,102283.38
2023-04-04T02:37:02.343Z,102295.41
2023-04-04T02:39:28.857Z,102347.50
2023-04-04T02:41:03.164Z,102347.50
2023-04-04T02:41:55.457Z,102328.09
2023-04-04T02:44:22.356Z,102363.75
2023-04-04T02:46:14.350Z,102363.75
2023-04-04T02:46:49.264Z,102368.03
2023-04-04T02:49:15.796Z,102328.75
2023-04-04T02:51:03.197Z,102328.75
2023-04-04T02:51:42.262Z,102371.31
2023-04-04T02:54:10.097Z,102380.00
2023-04-04T02:56:03.217Z,102380.00
2023-04-04T02:56:39.659Z,102371.31
2023-04-04T02:59:06.503Z,102304.03
2023-04-04T03:01:03.282Z,102304.03
2023-04-04T03:01:34.301Z,102336.44
2023-04-04T03:04:01.476Z,102361.69
2023-04-04T03:06:03.319Z,102361.69
2023-04-04T03:06:31.736Z,102336.44
2023-04-04T03:08:58.197Z,102154.53
2023-04-04T03:11:03.336Z,102154.53
2023-04-04T03:11:24.600Z,102334.59
2023-04-04T03:13:55.892Z,102345.75
2023-04-04T03:16:03.744Z,102345.75
2023-04-04T03:16:25.059Z,102380.53
2023-04-04T03:18:51.544Z,102351.50
2023-04-04T03:21:03.346Z,102351.50
2023-04-04T03:21:18.599Z,102398.53
2023-04-04T03:23:44.949Z,102394.09
2023-04-04T03:26:03.377Z,102394.09
2023-04-04T03:26:11.431Z,102391.44
2023-04-04T03:28:38.051Z,102306.25
2023-04-04T03:31:07.834Z,102348.88
2023-04-04T03:31:07.985Z,102348.88
2023-04-04T03:33:41.073Z,102409.91
2023-04-04T03:36:03.431Z,102409.91
2023-04-04T03:36:12.438Z,102389.97
2023-04-04T03:38:39.243Z,102401.41
2023-04-04T03:41:03.439Z,102401.41
2023-04-04T03:41:06.777Z,102393.63
2023-04-04T03:43:33.348Z,102396.25
2023-04-04T03:46:04.244Z,102376.28
2023-04-04T03:46:04.569Z,102376.28
2023-04-04T03:48:31.945Z,102361.31
2023-04-04T03:50:58.691Z,102364.97
2023-04-04T03:51:03.483Z,102364.97
2023-04-04T03:53:28.395Z,102404.22
2023-04-04T03:56:00.412Z,102406.72
2023-04-04T03:56:03.532Z,102406.72
2023-04-04T03:58:29.183Z,102319.47
2023-04-04T04:00:55.812Z,102390.16
2023-04-04T04:01:03.546Z,102390.16
2023-04-04T04:03:22.358Z,102266.41
2023-04-04T04:05:48.776Z,102377.09
2023-04-04T04:06:03.611Z,102377.09
2023-04-04T04:08:15.885Z,102374.50
2023-04-04T04:10:42.616Z,102355.19
2023-04-04T04:11:03.573Z,102355.19
2023-04-04T04:13:09.271Z,102303.81
2023-04-04T04:15:35.636Z,102370.81
2023-04-04T04:16:03.650Z,102370.81
2023-04-04T04:18:02.728Z,102377.59
2023-04-04T04:20:31.473Z,102310.59
2023-04-04T04:21:03.649Z,102310.59
2023-04-04T04:22:58.141Z,102376.75
2023-04-04T04:26:07.926Z,102373.22
2023-04-04T04:28:33.416Z,102367.91
2023-04-04T04:31:34.003Z,102174.50
2023-04-04T04:31:34.276Z,102174.50
2023-04-04T04:34:28.182Z,102374.72
2023-04-04T04:36:03.917Z,102374.72
2023-04-04T04:37:44.185Z,102385.03
2023-04-04T04:40:11.431Z,102259.53
2023-04-04T04:41:03.541Z,102259.53
2023-04-04T04:42:43.904Z,102335.38
2023-04-04T04:45:10.796Z,102362.41
2023-04-04T04:46:03.686Z,102362.41
2023-04-04T04:47:37.578Z,102233.84
2023-04-04T04:50:04.838Z,102367.41
2023-04-04T04:51:03.626Z,102367.41
2023-04-04T04:52:31.987Z,102380.28
2023-04-04T04:54:58.455Z,102371.75
2023-04-04T04:56:03.584Z,102371.75
2023-04-04T04:57:25.004Z,102377.69
2023-04-04T04:59:51.344Z,102373.16
2023-04-04T05:01:03.557Z,102373.16
2023-04-04T05:02:17.783Z,102300.84
2023-04-04T05:04:45.501Z,102365.16
2023-04-04T05:06:03.538Z,102365.16
2023-04-04T05:07:12.418Z,102302.28
2023-04-04T05:09:39.193Z,102336.19
2023-04-04T05:11:05.490Z,102336.19
2023-04-04T05:12:05.743Z,102320.41
2023-04-04T05:14:32.221Z,102358.63
2023-04-04T05:16:03.580Z,102358.63
2023-04-04T05:16:58.646Z,102371.53
2023-04-04T05:19:25.333Z,102374.13
2023-04-04T05:21:03.573Z,102374.13
2023-04-04T05:21:52.301Z,102375.88
2023-04-04T05:24:18.859Z,102330.47
2023-04-04T05:26:03.557Z,102330.47
2023-04-04T05:26:47.045Z,102311.25
2023-04-04T05:29:13.616Z,102320.69
2023-04-04T05:31:03.540Z,102320.69
2023-04-04T05:31:40.466Z,102370.59
2023-04-04T05:34:09.892Z,102355.72
2023-04-04T05:36:03.714Z,102355.72
2023-04-04T05:36:36.868Z,102395.00
2023-04-04T05:39:06.777Z,102405.56
2023-04-04T05:41:03.587Z,102405.56
2023-04-04T05:41:33.654Z,102325.50
2023-04-04T05:44:00.195Z,102381.34
2023-04-04T05:46:03.699Z,102381.34
2023-04-04T05:46:27.044Z,102382.53
2023-04-04T05:48:53.722Z,102409.53
2023-04-04T05:51:03.582Z,102409.53
2023-04-04T05:51:20.452Z,102393.94
2023-04-04T05:53:47.777Z,102218.94
2023-04-04T05:56:03.597Z,102218.94
2023-04-04T05:56:14.567Z,102432.25
2023-04-04T05:58:40.999Z,102446.06
2023-04-04T06:01:03.556Z,102446.06
2023-04-04T06:01:08.919Z,102431.56
2023-04-04T06:03:35.559Z,102437.72
2023-04-04T06:06:04.550Z,102397.59
2023-04-04T06:06:04.854Z,102397.59
2023-04-04T06:08:35.385Z,102374.06
2023-04-04T06:11:03.553Z,102374.06
2023-04-04T06:11:06.781Z,102361.97
2023-04-04T06:13:33.283Z,102410.22
2023-04-04T06:15:59.666Z,102420.81
2023-04-04T06:16:03.644Z,102420.81
2023-04-04T06:18:26.205Z,102451.78
2023-04-04T06:20:52.584Z,102456.31
2023-04-04T06:21:03.550Z,102456.31
2023-04-04T06:23:19.038Z,102466.25
2023-04-04T06:25:45.561Z,102464.88
2023-04-04T06:26:03.568Z,102464.88
2023-04-04T06:28:15.756Z,102486.63
2023-04-04T06:30:43.308Z,102356.47
2023-04-04T06:31:03.602Z,102356.47
2023-04-04T06:33:09.726Z,102417.78
2023-04-04T06:35:36.386Z,102462.44
2023-04-04T06:36:03.667Z,102462.44
2023-04-04T06:38:04.899Z,102455.75
2023-04-04T06:40:32.120Z,102389.06
2023-04-04T06:41:03.563Z,102389.06
2023-04-04T06:42:58.689Z,102362.22
2023-04-04T06:45:25.254Z,102418.00
2023-04-04T06:46:03.703Z,102418.00
2023-04-04T06:47:53.567Z,102437.41
2023-04-04T06:50:22.100Z,102451.69
2023-04-04T06:51:03.618Z,102451.69
2023-04-04T06:52:49.745Z,102477.84
2023-04-04T06:55:17.235Z,102459.97
2023-04-04T06:56:03.672Z,102459.97
2023-04-04T06:57:43.715Z,102389.34
2023-04-04T07:00:10.811Z,102391.41
2023-04-04T07:01:03.588Z,102391.41
2023-04-04T07:02:39.822Z,102425.50
2023-04-04T07:05:07.100Z,102401.53
2023-04-04T07:06:03.615Z,102401.53
2023-04-04T07:07:33.472Z,102364.66
2023-04-04T07:10:00.014Z,102318.19
2023-04-04T07:11:03.554Z,102318.19
2023-04-04T07:12:26.403Z,102248.28
2023-04-04T07:14:52.870Z,102170.47
2023-04-04T07:16:03.601Z,102170.47
2023-04-04T07:17:24.740Z,102239.03
2023-04-04T07:19:51.630Z,102142.06
2023-04-04T07:21:03.587Z,102142.06
2023-04-04T07:22:18.318Z,102143.13
2023-04-04T07:24:45.123Z,102130.28
2023-04-04T07:26:03.557Z,102130.28
2023-04-04T07:27:11.552Z,102123.44
2023-04-04T07:29:38.078Z,102171.03
2023-04-04T07:31:03.621Z,102171.03
2023-04-04T07:32:04.549Z,102107.13
2023-04-04T07:34:31.007Z,102046.63
2023-04-04T07:36:03.618Z,102046.63
2023-04-04T07:36:57.526Z,102038.00
2023-04-04T07:39:23.924Z,102063.09
2023-04-04T07:41:04.387Z,102063.09
2023-04-04T07:41:53.459Z,102038.00
2023-04-04T07:44:19.820Z,102029.38
2023-04-04T07:46:03.650Z,102029.38
2023-04-04T07:46:49.877Z,102026.75
2023-04-04T07:49:22.461Z,101934.19
2023-04-04T07:51:03.642Z,101934.19
2023-04-04T07:51:48.974Z,101924.69
2023-04-04T07:54:15.663Z,101828.78
2023-04-04T07:56:03.544Z,101828.78
2023-04-04T07:56:42.062Z,101893.47
2023-04-04T07:59:08.750Z,101965.28
2023-04-04T08:01:03.667Z,101965.28
2023-04-04T08:01:35.296Z,101915.88
2023-04-04T08:04:01.951Z,101905.31
2023-04-04T08:06:03.557Z,101905.31
2023-04-04T08:06:28.705Z,101872.25
2023-04-04T08:08:55.361Z,101806.63
2023-04-04T08:11:03.572Z,101806.63
2023-04-04T08:11:22.998Z,101845.56
2023-04-04T08:13:49.399Z,101755.78
2023-04-04T08:16:03.622Z,101755.78
2023-04-04T08:16:16.005Z,101811.97
2023-04-04T08:18:42.898Z,101814.63
2023-04-04T08:21:03.562Z,101814.63
2023-04-04T08:21:09.346Z,101829.97
2023-04-04T08:23:35.960Z,101746.03
2023-04-04T08:26:02.557Z,101787.56
2023-04-04T08:26:03.641Z,101787.56
2023-04-04T08:28:29.054Z,101911.19
2023-04-04T08:30:56.066Z,101892.91
2023-04-04T08:31:03.603Z,101892.91
2023-04-04T08:33:34.216Z,101825.22
2023-04-04T08:36:03.612Z,101825.22
2023-04-04T08:36:10.902Z,101726.03
2023-04-04T08:38:37.324Z,101782.13
2023-04-04T08:41:03.732Z,101801.16
2023-04-04T08:41:03.889Z,101801.16
2023-04-04T08:43:34.334Z,101723.63
2023-04-04T08:46:04.054Z,101816.03
2023-04-04T08:46:04.695Z,101816.03
2023-04-04T08:48:32.337Z,101896.38
2023-04-04T08:51:00.622Z,101851.31
2023-04-04T08:51:03.576Z,101851.31
2023-04-04T08:53:29.448Z,101761.16
2023-04-04T08:55:59.450Z,101802.50
2023-04-04T08:56:03.588Z,101802.50
2023-04-04T08:58:27.373Z,101872.22
2023-04-04T09:00:54.663Z,101774.81
2023-04-04T09:01:03.619Z,101774.81
2023-04-04T09:03:29.340Z,101811.75
2023-04-04T09:05:56.685Z,101808.44
2023-04-04T09:06:03.590Z,101808.44
2023-04-04T09:08:26.677Z,101809.22
2023-04-04T09:10:53.961Z,101742.03
2023-04-04T09:11:04.661Z,101742.03
2023-04-04T09:13:21.142Z,101762.56
2023-04-04T09:15:50.773Z,101815.41
2023-04-04T09:16:03.601Z,101815.41
2023-04-04T09:18:18.164Z,101832.56
2023-04-04T09:20:48.893Z,101782.19
2023-04-04T09:21:03.628Z,101782.19
2023-04-04T09:23:18.347Z,101712.00
2023-04-04T09:26:04.947Z,101701.97
2023-04-04T09:28:21.010Z,101702.28
2023-04-04T09:30:51.586Z,101746.50
2023-04-04T09:31:03.548Z,101746.50
2023-04-04T09:33:21.561Z,101818.31
2023-04-04T09:35:55.019Z,101855.53
2023-04-04T09:36:03.690Z,101855.53
2023-04-04T09:38:26.434Z,101901.81
2023-04-04T09:40:54.845Z,101765.03
2023-04-04T09:41:03.656Z,101765.03
2023-04-04T09:43:24.322Z,101805.81
2023-04-04T09:45:51.839Z,101809.16
2023-04-04T09:46:03.809Z,101809.16
2023-04-04T09:48:32.982Z,101894.59
2023-04-04T09:50:59.897Z,101750.34
2023-04-04T09:51:03.583Z,101750.34
2023-04-04T09:53:27.347Z,101803.63
2023-04-04T09:55:54.980Z,101745.38
2023-04-04T09:56:03.586Z,101745.38
2023-04-04T09:58:29.375Z,101745.72
2023-04-04T10:00:59.600Z,101761.56
2023-04-04T10:01:03.613Z,101761.56
2023-04-04T10:03:27.879Z,101736.53
2023-04-04T10:06:04.323Z,101862.69
2023-04-04T10:06:07.415Z,101862.69
2023-04-04T10:08:33.516Z,101883.03
2023-04-04T10:11:11.408Z,101912.84
2023-04-04T10:11:12.885Z,101912.84
2023-04-04T10:13:41.993Z,101806.66
2023-04-04T10:16:03.605Z,101806.66
2023-04-04T10:16:09.271Z,101956.03
2023-04-04T10:18:36.904Z,101798.63
2023-04-04T10:21:15.075Z,101783.19
2023-04-04T10:21:16.234Z,101783.19
2023-04-04T10:23:45.309Z,101785.31
2023-04-04T10:26:03.594Z,101785.31
2023-04-04T10:26:12.870Z,101773.75
2023-04-04T10:28:40.194Z,101751.16
2023-04-04T10:31:06.725Z,101751.16
2023-04-04T10:31:18.183Z,101742.34
2023-04-04T10:34:07.187Z,101780.25
2023-04-04T10:36:03.622Z,101780.25
2023-04-04T10:36:45.177Z,101754.38
2023-04-04T10:39:32.462Z,101617.56
2023-04-04T10:41:03.593Z,101617.56
2023-04-04T10:41:59.970Z,101657.09
2023-04-04T10:44:33.785Z,101786.84
2023-04-04T10:46:03.650Z,101786.84
2023-04-04T10:47:21.925Z,101795.72
2023-04-04T10:49:50.436Z,101747.63
2023-04-04T10:51:03.572Z,101747.63
2023-04-04T10:52:19.724Z,101839.81
2023-04-04T10:54:48.376Z,101791.25
2023-04-04T10:56:03.616Z,101791.25
2023-04-04T10:57:15.465Z,101736.94
2023-04-04T11:00:01.742Z,101699.34
2023-04-04T11:01:03.680Z,101699.34
2023-04-04T11:02:47.512Z,101761.50
2023-04-04T11:05:24.158Z,101699.16
2023-04-04T11:06:03.665Z,101699.16
2023-04-04T11:10:33.380Z,101728.69
2023-04-04T11:11:09.745Z,101728.69
2023-04-04T11:13:12.773Z,101823.03
2023-04-04T11:16:01.909Z,101764.75
2023-04-04T11:16:03.703Z,101764.75
2023-04-04T11:18:45.127Z,101694.75
2023-04-04T11:21:03.764Z,101694.75
2023-04-04T11:21:15.352Z,101825.53
2023-04-04T11:23:48.032Z,101749.66
2023-04-04T11:26:03.742Z,101749.66
2023-04-04T11:26:19.894Z,101697.16
2023-04-04T11:28:47.071Z,101665.34
2023-04-04T11:31:03.688Z,101665.34
2023-04-04T11:31:20.517Z,101721.66
2023-04-04T11:34:07.834Z,101779.09
2023-04-04T11:36:05.067Z,101779.09
2023-04-04T11:36:37.422Z,101761.13
2023-04-04T11:39:06.196Z,101726.44
2023-04-04T11:41:03.640Z,101726.44
2023-04-04T11:41:57.150Z,101746.25
2023-04-04T11:44:25.493Z,101821.94
2023-04-04T11:46:03.705Z,101821.94
2023-04-04T11:46:57.185Z,101776.78
2023-04-04T11:49:31.445Z,101728.03
2023-04-04T11:51:03.625Z,101728.03
2023-04-04T11:51:58.340Z,101653.72
2023-04-04T11:54:24.819Z,101742.00
2023-04-04T11:56:03.639Z,101742.00
2023-04-04T11:56:51.649Z,101758.13
2023-04-04T11:59:20.182Z,101748.31
2023-04-04T12:01:03.652Z,101748.31
2023-04-04T12:01:47.320Z,101676.53
2023-04-04T12:04:18.274Z,101715.47
2023-04-04T12:06:03.748Z,101715.47
2023-04-04T12:06:49.580Z,101834.53
2023-04-04T12:09:18.354Z,101754.59
2023-04-04T12:11:03.631Z,101754.59
2023-04-04T12:11:46.080Z,101806.22
2023-04-04T12:14:19.790Z,101841.22
2023-04-04T12:16:03.718Z,101841.22
2023-04-04T12:16:53.701Z,101828.50
2023-04-04T12:19:23.106Z,101767.63
2023-04-04T12:21:03.657Z,101767.63
2023-04-04T12:21:50.970Z,101726.25
2023-04-04T12:24:17.512Z,101730.38
2023-04-04T12:26:03.724Z,101730.38
2023-04-04T12:26:47.805Z,101758.78
2023-04-04T12:29:16.576Z,101867.38
2023-04-04T12:31:03.691Z,101867.38
2023-04-04T12:31:45.106Z,101847.69
2023-04-04T12:36:03.751Z,101759.97
2023-04-04T12:36:56.506Z,101839.88
2023-04-04T12:39:25.633Z,101851.44
2023-04-04T12:41:03.891Z,101851.44
2023-04-04T12:42:00.077Z,101803.97
2023-04-04T12:44:30.814Z,101753.69
2023-04-04T12:46:03.691Z,101753.69
2023-04-04T12:47:00.250Z,101767.56
2023-04-04T12:49:32.376Z,101760.41
2023-04-04T12:51:03.646Z,101760.41
2023-04-04T12:52:04.958Z,101773.34
2023-04-04T12:54:35.905Z,101805.44
2023-04-04T12:56:03.662Z,101805.44
2023-04-04T12:57:05.562Z,101881.00
2023-04-04T12:59:33.721Z,101721.22
2023-04-04T13:01:03.738Z,101721.22
2023-04-04T13:02:09.095Z,101616.72
2023-04-04T13:04:35.944Z,101610.97
2023-04-04T13:06:03.817Z,101610.97
2023-04-04T13:07:03.217Z,101592.69
2023-04-04T13:09:30.110Z,101685.03
2023-04-04T13:11:03.779Z,101685.03
2023-04-04T13:12:04.830Z,101638.81
2023-04-04T13:15:00.034Z,101691.00
2023-04-04T13:16:03.743Z,101691.00
2023-04-04T13:17:39.595Z,101695.81
2023-04-04T13:20:06.677Z,101629.31
2023-04-04T13:21:03.681Z,101629.31
2023-04-04T13:22:37.706Z,101701.38
2023-04-04T13:25:05.937Z,101630.63
2023-04-04T13:26:03.679Z,101630.63
2023-04-04T13:27:32.553Z,101616.03
2023-04-04T13:29:58.893Z,101521.69
2023-04-04T13:31:03.719Z,101521.69
2023-04-04T13:32:25.332Z,101685.66
2023-04-04T13:34:51.848Z,101805.16
2023-04-04T13:36:03.664Z,101805.16
2023-04-04T13:37:18.671Z,101779.44
2023-04-04T13:39:44.980Z,101812.91
2023-04-04T13:41:03.759Z,101812.91
2023-04-04T13:42:11.565Z,101603.53
2023-04-04T13:44:37.954Z,101612.25
2023-04-04T13:46:03.923Z,101612.25
2023-04-04T13:47:04.417Z,101612.41
2023-04-04T13:49:30.913Z,101763.69
2023-04-04T13:51:03.837Z,101763.69
2023-04-04T13:51:57.405Z,101758.91
2023-04-04T13:54:23.951Z,101719.72
2023-04-04T13:56:17.529Z,101719.72
2023-04-04T13:56:50.509Z,101709.66
2023-04-04T13:59:16.961Z,101645.16
2023-04-04T14:01:03.752Z,101645.16
2023-04-04T14:01:43.480Z,101680.72
2023-04-04T14:04:22.563Z,101779.25
2023-04-04T14:06:09.755Z,101779.25
2023-04-04T14:06:50.416Z,101771.16
2023-04-04T14:09:16.767Z,101670.88
2023-04-04T14:11:03.673Z,101670.88
2023-04-04T14:11:43.634Z,101689.56
2023-04-04T14:14:12.422Z,101678.00
2023-04-04T14:16:03.728Z,101678.00
2023-04-04T14:16:38.864Z,101687.47
2023-04-04T14:19:06.102Z,101639.25
2023-04-04T14:21:03.698Z,101639.25
2023-04-04T14:21:32.508Z,101659.22
2023-04-04T14:23:59.040Z,101465.75
2023-04-04T14:26:03.649Z,101465.75
2023-04-04T14:26:25.640Z,101510.59
2023-04-04T14:28:52.121Z,101547.78
2023-04-04T14:31:03.688Z,101547.78
2023-04-04T14:31:21.750Z,101341.06
2023-04-04T14:33:48.449Z,101523.78
2023-04-04T14:36:03.680Z,101523.78
2023-04-04T14:36:15.568Z,101493.28
2023-04-04T14:38:42.058Z,101604.53
2023-04-04T14:41:03.691Z,101604.53
2023-04-04T14:41:10.724Z,101633.28
2023-04-04T14:43:38.163Z,101500.19
2023-04-04T14:46:04.707Z,101572.03
2023-04-04T14:46:04.858Z,101572.03
2023-04-04T14:48:31.356Z,101450.91
2023-04-04T14:50:57.988Z,101429.47
2023-04-04T14:51:03.669Z,101429.47
2023-04-04T14:53:24.390Z,101599.09
2023-04-04T14:55:52.548Z,101629.50
2023-04-04T14:56:03.672Z,101629.50
2023-04-04T14:58:19.109Z,101526.66
2023-04-04T15:00:46.107Z,101607.50
2023-04-04T15:01:03.767Z,101607.50
2023-04-04T15:03:12.615Z,101606.38
2023-04-04T15:05:39.267Z,101613.63
2023-04-04T15:06:03.658Z,101613.63
2023-04-04T15:08:06.046Z,101561.03
2023-04-04T15:10:32.530Z,101640.72
2023-04-04T15:11:03.685Z,101640.72
2023-04-04T15:12:59.141Z,101578.44
2023-04-04T15:15:29.333Z,101454.25
2023-04-04T15:16:03.729Z,101454.25
2023-04-04T15:17:55.795Z,101604.72
2023-04-04T15:20:22.429Z,101496.94
2023-04-04T15:21:03.680Z,101496.94
2023-04-04T15:22:48.798Z,101458.56
2023-04-04T15:25:15.394Z,101451.19
2023-04-04T15:26:03.707Z,101451.19
2023-04-04T15:27:41.835Z,101430.09
2023-04-04T15:30:09.069Z,101461.78
2023-04-04T15:31:03.689Z,101461.78
2023-04-04T15:32:35.647Z,101450.81
2023-04-04T15:35:04.491Z,101365.88
2023-04-04T15:36:03.675Z,101365.88
2023-04-04T15:37:31.174Z,101490.97
2023-04-04T15:39:57.704Z,101544.81
2023-04-04T15:41:03.663Z,101544.81
2023-04-04T15:42:25.745Z,101385.19
2023-04-04T15:44:52.091Z,101474.88
2023-04-04T15:46:03.757Z,101474.88
2023-04-04T15:47:18.618Z,101476.47
2023-04-04T15:49:44.921Z,101414.22
2023-04-04T15:51:03.714Z,101414.22
2023-04-04T15:52:11.386Z,101383.34
2023-04-04T15:54:37.988Z,101443.41
2023-04-04T15:56:03.824Z,101443.41
2023-04-04T15:57:04.294Z,101502.75
2023-04-04T15:59:32.242Z,101385.59
2023-04-04T16:01:03.868Z,101385.59
2023-04-04T16:01:58.978Z,101448.44
2023-04-04T16:04:25.465Z,101462.19
2023-04-04T16:06:03.675Z,101462.19
2023-04-04T16:06:52.008Z,101471.34
2023-04-04T16:09:18.349Z,101487.63
2023-04-04T16:11:03.709Z,101487.63
2023-04-04T16:11:44.970Z,101578.38
2023-04-04T16:14:12.203Z,101505.75
2023-04-04T16:16:03.755Z,101505.75
2023-04-04T16:16:40.470Z,101553.69
2023-04-04T16:19:07.296Z,101515.03
2023-04-04T16:21:03.726Z,101515.03
2023-04-04T16:21:34.188Z,101497.56
2023-04-04T16:24:00.776Z,101388.28
2023-04-04T16:26:03.667Z,101388.28
2023-04-04T16:26:27.290Z,101338.84
2023-04-04T16:28:53.652Z,101500.03
2023-04-04T16:31:03.764Z,101500.03
2023-04-04T16:31:20.408Z,101394.72
2023-04-04T16:33:47.628Z,101476.81
2023-04-04T16:36:03.669Z,101476.81
2023-04-04T16:36:14.066Z,101466.47
2023-04-04T16:38:40.759Z,101489.50
2023-04-04T16:41:03.789Z,101489.50
2023-04-04T16:41:07.066Z,101453.19
2023-04-04T16:43:33.563Z,101583.25
2023-04-04T16:46:02.436Z,101520.84
2023-04-04T16:46:03.848Z,101520.84
2023-04-04T16:48:28.919Z,101543.53
2023-04-04T16:50:56.113Z,101542.78
2023-04-04T16:51:03.679Z,101542.78
2023-04-04T16:53:22.637Z,101500.56
2023-04-04T16:55:48.984Z,101584.16
2023-04-04T16:56:03.698Z,101584.16
2023-04-04T16:58:15.508Z,101596.31
2023-04-04T17:00:42.466Z,101471.47
2023-04-04T17:01:03.759Z,101471.47
2023-04-04T17:03:09.372Z,101605.94
2023-04-04T17:05:36.070Z,101610.19
2023-04-04T17:06:03.704Z,101610.19
2023-04-04T17:08:02.565Z,101652.25
2023-04-04T17:10:29.106Z,101585.28
2023-04-04T17:11:03.682Z,101585.28
2023-04-04T17:12:55.501Z,101639.59
2023-04-04T17:15:21.995Z,101643.13
2023-04-04T17:16:03.737Z,101643.13
2023-04-04T17:17:52.031Z,101519.22
2023-04-04T17:20:19.197Z,101644.78
2023-04-04T17:21:03.690Z,101644.78
2023-04-04T17:22:47.804Z,101570.28
2023-04-04T17:25:16.678Z,101652.94
2023-04-04T17:26:03.707Z,101652.94
2023-04-04T17:27:43.110Z,101676.56
2023-04-04T17:30:10.177Z,101691.44
2023-04-04T17:31:03.693Z,101691.44
2023-04-04T17:32:36.694Z,101598.97
2023-04-04T17:35:03.280Z,101716.97
2023-04-04T17:36:03.688Z,101716.97
2023-04-04T17:37:30.902Z,101701.13
2023-04-04T17:39:59.791Z,101761.66
2023-04-04T17:41:03.705Z,101761.66
2023-04-04T17:42:26.261Z,101679.94
2023-04-04T17:44:52.634Z,101759.97
2023-04-04T17:46:03.869Z,101759.97
2023-04-04T17:47:19.375Z,101746.97
2023-04-04T17:49:46.455Z,101767.16
2023-04-04T17:51:05.506Z,101767.16
2023-04-04T17:52:18.763Z,101747.44
2023-04-04T17:54:47.806Z,101767.38
2023-04-04T17:56:03.688Z,101767.38
2023-04-04T17:57:14.982Z,101690.03
2023-04-04T17:59:41.403Z,101712.41
2023-04-04T18:01:03.717Z,101712.41
2023-04-04T18:02:08.050Z,101768.47
2023-04-04T18:04:34.371Z,101779.78
2023-04-04T18:06:03.717Z,101779.78
2023-04-04T18:07:01.054Z,101779.00
2023-04-04T18:09:28.937Z,101707.47
2023-04-04T18:11:03.737Z,101707.47
2023-04-04T18:11:55.893Z,101754.19
2023-04-04T18:14:22.310Z,101805.22
2023-04-04T18:16:03.727Z,101805.22
2023-04-04T18:16:49.189Z,101818.22
2023-04-04T18:19:15.692Z,101802.03
2023-04-04T18:21:03.843Z,101802.03
2023-04-04T18:21:42.241Z,101808.97
2023-04-04T18:24:11.278Z,101829.75
2023-04-04T18:26:03.711Z,101829.75
2023-04-04T18:26:37.774Z,101837.63
2023-04-04T18:29:04.299Z,101794.59
2023-04-04T18:31:03.821Z,101794.59
2023-04-04T18:31:30.858Z,101795.47
2023-04-04T18:33:57.374Z,101839.53
2023-04-04T18:36:03.750Z,101839.53
2023-04-04T18:36:23.956Z,101844.72
2023-04-04T18:38:50.507Z,101826.66
2023-04-04T18:41:03.709Z,101826.66
2023-04-04T18:41:17.522Z,101851.69
2023-04-04T18:43:44.252Z,101823.28
2023-04-04T18:46:05.519Z,101823.28
2023-04-04T18:46:10.713Z,101843.97
2023-04-04T18:48:37.274Z,101788.97
2023-04-04T18:51:04.289Z,101786.38
2023-04-04T18:51:04.539Z,101786.38
2023-04-04T18:53:30.868Z,101842.59
2023-04-04T18:55:58.400Z,101734.91
2023-04-04T18:56:03.738Z,101734.91
2023-04-04T18:58:26.012Z,101852.22
2023-04-04T19:00:58.362Z,101833.31
2023-04-04T19:01:03.858Z,101833.31
2023-04-04T19:03:26.039Z,101860.91
2023-04-04T19:05:53.649Z,101860.94
2023-04-04T19:06:03.745Z,101860.94
2023-04-04T19:08:20.191Z,101874.84
2023-04-04T19:10:49.711Z,101864.50
2023-04-04T19:11:03.712Z,101864.50
2023-04-04T19:13:19.356Z,101823.06
2023-04-04T19:15:46.863Z,101873.91
2023-04-04T19:16:03.781Z,101873.91
2023-04-04T19:18:13.305Z,101837.78
2023-04-04T19:20:42.051Z,101838.66
2023-04-04T19:21:03.737Z,101838.66
2023-04-04T19:23:08.732Z,101813.75
2023-04-04T19:25:35.326Z,101858.63
2023-04-04T19:26:03.728Z,101858.63
2023-04-04T19:28:02.683Z,101900.13